Flight Track Log - Related Links

Times and Time Zones

All times are in EDT time to prevent confusion due to time zone crossing. See the EJA370 flight status page for this flight to view local times or setup timezone preferences in your user account.

Time Position Orientation Groundspeed Altitude Reporting Facility
EDT Latitude Longitude Course Direction KTS MPH feet Rate Location/Type
Wed 03:50:49 PM 30.0564 -95.5542 203° Southwest 173 199 800  Level Houston Center
Wed 03:51:32 PM 30.0242 -95.5700 203° Southwest 214 246 2,000 960 Climbing Houston Center
Wed 03:52:04 PM 30.0342 -95.6031 289° West 241 277 2,000  Level Houston Center
Wed 03:52:34 PM 30.0531 -95.6342 305° West 233 268 2,000  Level Houston Center
Wed 03:53:06 PM 30.0747 -95.6589 315° West 231 266 2,000  Level Houston Center
Wed 03:53:41 PM 30.1172 -95.6458 15° North 253 291 2,000  Level Houston Center
Wed 03:54:08 PM 30.1383 -95.6314 31° Northeast 247 284 2,000 873 Level Houston Center
Wed 03:54:36 PM 30.1706 -95.6106 29° Northeast 238 274 2,800 1,645 Climbing Houston Center
Wed 03:55:10 PM 30.1978 -95.5942 27° Northeast 244 281 3,700 2,700 Climbing Houston Center
Wed 03:55:36 PM 30.2417 -95.5611 33° Northeast 305 351 5,500 2,903 Climbing Houston Center
Wed 03:56:12 PM 30.2697 -95.5419 31° Northeast 299 344 6,700 2,909 Climbing Houston Center
Wed 03:57:15 PM 30.3614 -95.5031 20° North 311 358 10,300 3,120 Climbing Houston Center
Wed 03:58:17 PM 30.4275 -95.5594 324° Northwest 296 341 13,200 2,855 Climbing Houston Center
Wed 03:59:19 PM 30.4964 -95.6186 324° Northwest 304 350 16,200 2,855 Climbing Houston Center
Wed 04:00:21 PM 30.5833 -95.6786 329° Northwest 358 412 19,100 3,048 Climbing Houston Center
Wed 04:01:23 PM 30.6953 -95.7375 336° Northwest 382 440 22,500 2,371 Climbing Houston Center
Wed 04:02:25 PM 30.8000 -95.7936 335° Northwest 405 466 24,000 1,500 Climbing Houston Center
Wed 04:03:27 PM 30.9150 -95.8550 335° Northwest 442 509 25,600 1,694 Climbing Houston Center
Wed 04:04:29 PM 31.0317 -95.9175 335° Northwest 455 524 27,500 1,920 Climbing Houston Center
Wed 04:05:32 PM 31.1494 -95.9775 336° Northwest 456 525 29,600 1,968 Climbing Houston Center
Wed 04:06:34 PM 31.2714 -96.0250 342° North 457 526 31,600 1,161 Climbing Houston Center
Wed 04:07:36 PM 31.4150 -96.0800 342° North 463 533 32,000 194 Climbing Houston Center
Wed 04:08:38 PM 31.5403 -96.1289 342° North 469 540 32,000  Level Houston Center
Wed 04:09:40 PM 31.6600 -96.1758 342° North 459 528 32,000  Level Houston Center
Wed 04:10:34 PM 31.7778 -96.2233 341° North 452 520 32,000  Level Fort Worth Center
Wed 04:11:34 PM 31.8950 -96.2681 342° North 447 514 32,000  Level Fort Worth Center
Wed 04:12:34 PM 31.9978 -96.3111 340° North 447 514 32,000  Level Fort Worth Center
Wed 04:13:34 PM 32.1192 -96.3586 342° North 447 514 32,000  Level Fort Worth Center
Wed 04:14:35 PM 32.2511 -96.4061 343° North 447 514 32,000  Level Fort Worth Center
Wed 04:15:34 PM 32.3619 -96.4444 344° North 454 522 32,000  Level Fort Worth Center
Wed 04:16:34 PM 32.4672 -96.5392 323° Northwest 437 503 32,000  Level Fort Worth Center
Wed 04:17:35 PM 32.5386 -96.6347 312° West 432 497 32,000  Level Fort Worth Center
Wed 04:18:34 PM 32.6311 -96.7547 312° West 443 510 32,000  Level Fort Worth Center
Wed 04:19:34 PM 32.7089 -96.8578 312° West 455 524 32,000  Level Fort Worth Center
Wed 04:20:34 PM 32.8014 -96.9808 312° West 455 524 32,000 600 Level Fort Worth Center
Wed 04:21:34 PM 32.8767 -97.0769 313° West 450 518 33,200 1,000 Climbing Fort Worth Center
Wed 04:22:34 PM 32.9647 -97.1981 311° West 440 506 34,000 400 Climbing Fort Worth Center
Wed 04:23:34 PM 33.0400 -97.3019 311° West 447 514 34,000  Level Fort Worth Center
Wed 04:24:34 PM 33.1339 -97.4233 313° West 453 521 34,000  Level Fort Worth Center
Wed 04:25:34 PM 33.2092 -97.5253 311° West 453 521 34,000  Level Fort Worth Center
Wed 04:26:34 PM 33.2903 -97.6394 310° West 453 521 34,000  Level Fort Worth Center
Wed 04:27:34 PM 33.3839 -97.7617 313° West 453 521 34,000  Level Fort Worth Center
Wed 04:28:34 PM 33.4567 -97.8642 310° West 458 527 34,000  Level Fort Worth Center
Wed 04:29:35 PM 33.5481 -97.9892 311° West 451 519 34,000  Level Fort Worth Center
Wed 04:30:34 PM 33.6267 -98.0919 313° West 457 526 34,000  Level Fort Worth Center
Wed 04:31:34 PM 33.7178 -98.2200 311° West 463 533 34,000  Level Fort Worth Center
Wed 04:32:34 PM 33.7983 -98.3333 311° West 463 533 34,000  Level Fort Worth Center
Wed 04:33:34 PM 33.8789 -98.4492 310° West 457 526 34,000  Level Fort Worth Center
Wed 04:34:34 PM 33.9678 -98.5631 313° West 457 526 34,000  Level Fort Worth Center
Wed 04:35:34 PM 34.0519 -98.6844 310° West 463 533 34,000  Level Fort Worth Center
Wed 04:36:34 PM 34.1386 -98.7961 313° West 463 533 34,000  Level Fort Worth Center
Wed 04:37:34 PM 34.2544 -98.8683 333° Northwest 457 526 34,000  Level Fort Worth Center
Wed 04:38:34 PM 34.3750 -98.9233 339° North 457 526 34,000  Level Fort Worth Center
Wed 04:39:34 PM 34.5019 -98.9481 351° North 457 526 34,000  Level Fort Worth Center
Wed 04:40:34 PM 34.6061 -98.9475 360° North 462 532 34,000 -496 Level Fort Worth Center
Wed 04:41:35 PM 34.7461 -98.9450 North 457 526 33,000 -1,500 Descending Fort Worth Center
Wed 04:42:34 PM 34.8733 -98.9472 359° North 457 526 31,000 -2,067 Descending Fort Worth Center
Wed 04:43:34 PM 34.9967 -98.9167 11° North 457 526 28,900 -2,250 Descending Fort Worth Center
Wed 04:44:34 PM 35.1142 -98.8653 20° North 445 512 26,500 -2,400 Descending Fort Worth Center
Wed 04:45:34 PM 35.2233 -98.8036 25° Northeast 440 506 24,100 -2,400 Descending Fort Worth Center
Wed 04:46:34 PM 35.3261 -98.7494 23° Northeast 418 481 21,700 -2,331 Descending Fort Worth Center
Wed 04:47:35 PM 35.4267 -98.7025 21° North 393 452 19,400 -1,900 Descending Fort Worth Center
Wed 04:48:34 PM 35.5311 -98.6814 North 381 438 17,900 -1,261 Descending Fort Worth Center
Wed 04:49:34 PM 35.6375 -98.6700 North 381 438 16,900 -843 Descending Fort Worth Center
Wed 04:50:35 PM 35.7378 -98.6486 10° North 369 425 16,200 -569 Descending Fort Worth Center
Wed 04:51:30 PM 35.8156 -98.5883 32° Northeast 339 390 15,800 -462 Descending Fort Worth Center
Wed 04:52:06 PM 35.8536 -98.5275 52° Northeast 353 406 15,500 -469 Descending Fort Worth Center
Wed 04:52:34 PM 35.8728 -98.4867 60° Northeast 331 381 15,300 -492 Descending Fort Worth Center
Wed 04:53:07 PM 35.8900 -98.4153 73° East 355 409 15,000 -492 Descending Fort Worth Center
Wed 04:53:35 PM 35.8883 -98.3692 93° East 325 374 14,800 -800 Descending Fort Worth Center
Wed 04:54:07 PM 35.8658 -98.2997 112° Southeast 353 406 14,200 -1,220 Descending Fort Worth Center
Wed 04:54:34 PM 35.8558 -98.2561 106° East 316 364 13,600 -1,574 Descending Fort Worth Center
Wed 04:55:08 PM 35.8250 -98.1917 121° Southeast 358 412 12,600 -1,700 Descending Fort Worth Center
Wed 04:55:34 PM 35.8044 -98.1531 123° Southeast 327 376 11,900 -1,770 Descending Fort Worth Center
Wed 04:56:09 PM 35.7692 -98.0942 126° Southeast 341 392 10,800 -1,800 Descending Fort Worth Center
Wed 04:56:34 PM 35.7528 -98.0606 121° Southeast 327 376 10,100 -1,900 Descending Fort Worth Center
Wed 04:57:09 PM 35.7217 -98.0092 127° Southeast 291 335 8,900 -2,000 Descending Fort Worth Center
Wed 04:57:34 PM 35.7094 -97.9708 111° Southeast 310 357 8,100 -2,066 Descending Fort Worth Center
Wed 04:58:10 PM 35.6867 -97.9272 123° Southeast 267 307 6,800 -1,900 Descending Fort Worth Center
Wed 04:58:34 PM 35.6742 -97.8964 117° Southeast 287 330 6,200 -1,906 Descending Fort Worth Center
Wed 04:59:35 PM 35.6392 -97.8172 119° Southeast 275 316 4,100 -1,361 Descending Fort Worth Center
Wed 05:00:11 PM 35.6142 -97.7658 121° Southeast 253 291 4,000 -102 Descending Fort Worth Center
Wed 05:00:34 PM 35.6039 -97.7428 119° Southeast 265 305 4,000  Level Fort Worth Center
Wed 05:01:12 PM 35.5789 -97.6867 119° Southeast 255 293 4,000  Level Fort Worth Center
Wed 05:01:34 PM 35.5706 -97.6689 120° Southeast 260 299 4,000 -100 Level Fort Worth Center
Wed 05:02:12 PM 35.5478 -97.6150 117° Southeast 242 278 3,900 -295 Descending Fort Worth Center
Wed 05:02:35 PM 35.5375 -97.5972 125° Southeast 248 285 3,700 -885 Descending Fort Worth Center
Wed 05:03:13 PM 35.4978 -97.5919 174° South 204 235 3,000 -915 Descending Fort Worth Center
Wed 05:03:34 PM 35.4792 -97.5919 180° South 194 223 2,800 -984 Descending Fort Worth Center
Wed 05:04:14 PM 35.4519 -97.5919 180° South 136 157 2,000 -800 Descending Fort Worth Center
Wed 05:04:34 PM 35.4417 -97.5919 180° South 172 198 2,000 -600 Level Fort Worth Center
Wed 05:05:14 PM 35.4164 -97.5919 180° South 106 122 1,400 -590 Descending Fort Worth Center
Wed 05:05:35 PM 35.4103 -97.5944 198° South 136 157 1,400 24,450 Level Fort Worth Center
Wed 05:06:34 PM 35.3914 -97.5919 174° South 119 137 34,000 33,153 Climbing Fort Worth Center

Login

Don't have an account? Register now (free) for customized features, flight alerts, and more!